createdAt,value
2023-02-05T00:00:13.937Z,8.60
2023-02-05T00:02:42.482Z,8.60
2023-02-05T00:05:10.642Z,8.70
2023-02-05T00:07:38.901Z,8.70
2023-02-05T00:10:07.792Z,8.70
2023-02-05T00:12:36.113Z,8.70
2023-02-05T00:15:04.397Z,8.60
2023-02-05T00:17:36.479Z,8.60
2023-02-05T00:20:05.708Z,8.50
2023-02-05T00:22:34.055Z,8.50
2023-02-05T00:25:02.520Z,8.50
2023-02-05T00:27:30.665Z,8.50
2023-02-05T00:29:58.883Z,8.40
2023-02-05T00:32:27.210Z,8.40
2023-02-05T00:34:56.891Z,8.50
2023-02-05T00:37:24.970Z,8.50
2023-02-05T00:39:53.443Z,8.40
2023-02-05T00:42:21.510Z,8.40
2023-02-05T00:44:49.822Z,8.40
2023-02-05T00:47:18.121Z,8.40
2023-02-05T00:49:46.403Z,8.40
2023-02-05T00:52:16.114Z,8.40
2023-02-05T00:54:44.540Z,8.30
2023-02-05T00:57:14.360Z,8.30
2023-02-05T00:59:42.572Z,8.10
2023-02-05T01:02:10.920Z,8.00
2023-02-05T01:04:39.196Z,8.10
2023-02-05T01:07:07.403Z,8.10
2023-02-05T01:09:37.174Z,8.00
2023-02-05T01:12:05.624Z,8.00
2023-02-05T01:14:33.806Z,7.90
2023-02-05T01:17:02.035Z,7.50
2023-02-05T01:19:30.237Z,7.40
2023-02-05T01:21:58.361Z,7.50
2023-02-05T01:24:26.724Z,7.70
2023-02-05T01:26:58.905Z,7.70
2023-02-05T01:29:29.262Z,7.70
2023-02-05T01:31:58.371Z,7.70
2023-02-05T01:34:26.578Z,7.70
2023-02-05T01:36:55.607Z,7.70
2023-02-05T01:39:23.863Z,7.70
2023-02-05T01:41:52.001Z,7.70
2023-02-05T01:44:25.020Z,7.60
2023-02-05T01:46:54.559Z,7.70
2023-02-05T01:49:26.823Z,7.70
2023-02-05T01:52:00.200Z,7.60
2023-02-05T01:54:30.362Z,7.60
2023-02-05T01:57:04.247Z,7.70
2023-02-05T01:59:36.921Z,7.60
2023-02-05T02:02:08.266Z,7.60
2023-02-05T02:04:40.380Z,7.40
2023-02-05T02:07:11.121Z,7.30
2023-02-05T02:09:41.357Z,7.20
2023-02-05T02:12:11.117Z,7.00
2023-02-05T02:14:42.908Z,7.00
2023-02-05T02:17:12.508Z,7.20
2023-02-05T02:19:45.880Z,7.30
2023-02-05T02:22:35.388Z,7.10
2023-02-05T02:25:30.606Z,7.10
2023-02-05T02:28:05.062Z,7.00
2023-02-05T02:30:40.014Z,7.10
2023-02-05T02:33:14.999Z,7.20
2023-02-05T02:35:48.119Z,7.20
2023-02-05T02:38:23.098Z,7.30
2023-02-05T02:40:55.117Z,7.40
2023-02-05T02:43:32.796Z,7.40
2023-02-05T02:46:05.237Z,7.40
2023-02-05T02:48:35.730Z,7.30
2023-02-05T02:51:06.574Z,7.10
2023-02-05T02:53:38.758Z,7.00
2023-02-05T02:56:08.493Z,7.10
2023-02-05T02:58:43.597Z,7.20
2023-02-05T03:01:13.411Z,7.10
2023-02-05T03:03:46.448Z,7.20
2023-02-05T03:06:15.975Z,7.10
2023-02-05T03:08:50.776Z,7.10
2023-02-05T03:11:19.180Z,7.20
2023-02-05T03:13:49.225Z,7.20
2023-02-05T03:16:21.647Z,7.20
2023-02-05T03:18:50.683Z,7.10
2023-02-05T03:21:21.185Z,7.00
2023-02-05T03:23:50.056Z,6.90
2023-02-05T03:26:26.264Z,6.80
2023-02-05T03:29:03.755Z,6.50
2023-02-05T03:31:38.586Z,6.20
2023-02-05T03:34:17.485Z,6.00
2023-02-05T03:36:58.497Z,5.90
2023-02-05T03:39:36.896Z,6.20
2023-02-05T03:42:15.630Z,6.50
2023-02-05T03:45:04.785Z,6.50
2023-02-05T03:47:55.927Z,6.50
2023-02-05T03:50:30.715Z,6.60
2023-02-05T03:53:09.174Z,6.70
2023-02-05T03:55:46.112Z,6.70
2023-02-05T03:58:20.206Z,6.60
2023-02-05T04:00:50.317Z,6.60
2023-02-05T04:03:19.488Z,6.60
2023-02-05T04:05:47.718Z,6.60
2023-02-05T04:08:16.658Z,6.50
2023-02-05T04:10:49.396Z,6.50
2023-02-05T04:13:17.707Z,6.40
2023-02-05T04:15:45.886Z,6.40
2023-02-05T04:18:19.204Z,6.50
2023-02-05T04:20:49.482Z,6.40
2023-02-05T04:23:21.426Z,6.40
2023-02-05T04:25:54.329Z,6.30
2023-02-05T04:28:26.847Z,6.30
2023-02-05T04:30:55.133Z,6.30
2023-02-05T04:33:24.899Z,6.30
2023-02-05T04:35:58.158Z,6.10
2023-02-05T04:38:26.421Z,6.20
2023-02-05T04:40:54.682Z,6.20
2023-02-05T04:43:22.972Z,6.30
2023-02-05T04:45:51.400Z,6.20
2023-02-05T04:48:21.467Z,6.20
2023-02-05T04:50:51.158Z,6.20
2023-02-05T04:53:22.922Z,6.20
2023-02-05T04:55:51.140Z,6.20
2023-02-05T04:58:19.068Z,6.20
2023-02-05T05:00:46.888Z,6.20
2023-02-05T05:03:14.801Z,6.20
2023-02-05T05:05:42.679Z,6.10
2023-02-05T05:08:12.060Z,6.00
2023-02-05T05:10:40.148Z,5.90
2023-02-05T05:13:08.138Z,5.90
2023-02-05T05:15:36.203Z,6.00
2023-02-05T05:18:04.588Z,6.10
2023-02-05T05:20:32.418Z,6.00
2023-02-05T05:23:01.630Z,5.90
2023-02-05T05:25:30.922Z,5.80
2023-02-05T05:27:58.888Z,5.90
2023-02-05T05:30:26.861Z,5.90
2023-02-05T05:32:54.893Z,5.70
2023-02-05T05:35:22.814Z,5.70
2023-02-05T05:37:50.662Z,5.80
2023-02-05T05:40:37.494Z,5.80
2023-02-05T05:43:25.351Z,5.70
2023-02-05T05:45:53.665Z,5.60
2023-02-05T05:48:21.474Z,5.50
2023-02-05T05:50:49.264Z,5.50
2023-02-05T05:53:17.265Z,5.40
2023-02-05T05:55:45.312Z,5.40
2023-02-05T05:58:15.061Z,5.40
2023-02-05T06:00:43.493Z,5.50
2023-02-05T06:03:11.768Z,5.60
2023-02-05T06:05:39.828Z,5.50
2023-02-05T06:08:07.663Z,5.40
2023-02-05T06:10:35.606Z,5.50
2023-02-05T06:13:03.419Z,5.40
2023-02-05T06:15:32.918Z,5.30
2023-02-05T06:18:00.904Z,5.40
2023-02-05T06:20:28.717Z,5.50
2023-02-05T06:22:56.531Z,5.40
2023-02-05T06:25:24.334Z,5.30
2023-02-05T06:27:52.109Z,5.40
2023-02-05T06:30:20.340Z,5.30
2023-02-05T06:32:49.433Z,5.30
2023-02-05T06:35:17.321Z,5.20
2023-02-05T06:37:47.586Z,5.10
2023-02-05T06:40:18.346Z,5.10
2023-02-05T06:42:46.452Z,5.20
2023-02-05T06:45:14.368Z,5.20
2023-02-05T06:47:42.213Z,5.30
2023-02-05T06:50:11.679Z,5.30
2023-02-05T06:52:39.481Z,5.40
2023-02-05T06:55:08.119Z,5.30
2023-02-05T06:57:35.907Z,5.20
2023-02-05T07:00:04.707Z,5.30
2023-02-05T07:02:32.822Z,5.40
2023-02-05T07:05:00.506Z,5.40
2023-02-05T07:07:29.833Z,5.40
2023-02-05T07:09:57.619Z,5.40
2023-02-05T07:12:25.587Z,5.40
2023-02-05T07:14:53.292Z,5.40
2023-02-05T07:17:21.156Z,5.40
2023-02-05T07:19:49.269Z,5.50
2023-02-05T07:22:17.182Z,5.60
2023-02-05T07:24:46.486Z,5.50
2023-02-05T07:27:14.194Z,5.60
2023-02-05T07:29:42.226Z,5.60
2023-02-05T07:32:10.129Z,5.60
2023-02-05T07:34:38.075Z,5.60
2023-02-05T07:37:05.853Z,5.60
2023-02-05T07:39:33.790Z,5.60
2023-02-05T07:42:02.928Z,5.60
2023-02-05T07:44:38.762Z,5.70
2023-02-05T07:47:06.644Z,5.80
2023-02-05T07:49:34.427Z,5.80
2023-02-05T07:52:02.360Z,5.80
2023-02-05T07:54:30.235Z,5.80
2023-02-05T07:57:00.239Z,5.90
2023-02-05T07:59:29.859Z,6.00
2023-02-05T08:01:57.691Z,6.00
2023-02-05T08:04:25.544Z,6.00
2023-02-05T08:06:53.428Z,6.00
2023-02-05T08:09:21.365Z,6.00
2023-02-05T08:11:49.019Z,6.10
2023-02-05T08:14:16.918Z,6.20
2023-02-05T08:16:46.228Z,6.20
2023-02-05T08:19:15.809Z,6.30
2023-02-05T08:21:43.811Z,6.30
2023-02-05T08:24:11.770Z,6.40
2023-02-05T08:26:40.576Z,6.50
2023-02-05T08:29:31.607Z,6.60
2023-02-05T08:32:01.092Z,6.60
2023-02-05T08:34:29.703Z,6.70
2023-02-05T08:36:58.191Z,6.70
2023-02-05T08:39:27.290Z,6.80
2023-02-05T08:41:57.018Z,6.90
2023-02-05T08:44:25.460Z,6.90
2023-02-05T08:46:53.594Z,7.00
2023-02-05T08:49:23.320Z,7.10
2023-02-05T08:51:51.366Z,7.10
2023-02-05T08:54:19.562Z,7.10
2023-02-05T08:56:50.432Z,7.20
2023-02-05T08:59:18.873Z,7.30
2023-02-05T09:01:47.222Z,7.30
2023-02-05T09:04:15.828Z,7.30
2023-02-05T09:06:45.752Z,7.30
2023-02-05T09:09:14.383Z,7.50
2023-02-05T09:11:42.322Z,7.50
2023-02-05T09:14:13.442Z,7.60
2023-02-05T09:16:41.894Z,7.70
2023-02-05T09:19:10.491Z,7.80
2023-02-05T09:21:38.379Z,7.90
2023-02-05T09:24:07.825Z,8.00
2023-02-05T09:26:35.837Z,8.20
2023-02-05T09:29:03.559Z,8.30
2023-02-05T09:31:31.710Z,8.50
2023-02-05T09:34:02.147Z,8.60
2023-02-05T09:36:30.150Z,8.70
2023-02-05T09:39:14.075Z,8.70
2023-02-05T09:41:55.264Z,8.90
2023-02-05T09:44:33.993Z,9.00
2023-02-05T09:47:07.874Z,9.10
2023-02-05T09:49:43.704Z,9.20
2023-02-05T09:52:18.865Z,9.30
2023-02-05T09:54:52.472Z,9.40
2023-02-05T09:57:32.609Z,9.60
2023-02-05T10:00:01.139Z,9.70
2023-02-05T10:02:37.133Z,9.90
2023-02-05T10:05:13.829Z,9.90
2023-02-05T10:07:50.571Z,10.00
2023-02-05T10:10:27.199Z,10.10
2023-02-05T10:13:19.127Z,10.20
2023-02-05T10:16:04.880Z,10.20
2023-02-05T10:18:43.336Z,10.40
2023-02-05T10:21:26.129Z,10.50
2023-02-05T10:24:15.398Z,10.60
2023-02-05T10:26:48.579Z,10.60
2023-02-05T10:29:33.832Z,10.80
2023-02-05T10:32:15.581Z,10.80
2023-02-05T10:35:03.161Z,11.00
2023-02-05T10:37:39.881Z,11.00
2023-02-05T10:40:14.432Z,11.10
2023-02-05T10:42:47.212Z,11.20
2023-02-05T10:45:21.444Z,11.30
2023-02-05T10:48:00.547Z,11.40
2023-02-05T10:50:34.248Z,11.50
2023-02-05T10:53:02.557Z,11.50
2023-02-05T10:55:31.116Z,11.60
2023-02-05T10:58:00.774Z,11.70
2023-02-05T11:00:31.059Z,11.70
2023-02-05T11:03:00.183Z,11.80
2023-02-05T11:05:37.154Z,11.80
2023-02-05T11:08:05.512Z,11.90
2023-02-05T11:10:36.161Z,12.00
2023-02-05T11:13:15.819Z,12.10
2023-02-05T11:15:58.180Z,12.10
2023-02-05T11:18:29.027Z,12.10
2023-02-05T11:20:58.390Z,12.20
2023-02-05T11:23:29.871Z,12.30
2023-02-05T11:25:59.679Z,12.40
2023-02-05T11:28:30.125Z,12.40
2023-02-05T11:31:20.865Z,12.50
2023-02-05T11:33:49.446Z,12.60
2023-02-05T11:36:21.765Z,12.70
2023-02-05T11:38:52.290Z,12.70
2023-02-05T11:41:31.866Z,12.80
2023-02-05T11:44:01.358Z,12.90
2023-02-05T11:46:44.873Z,13.00
2023-02-05T11:49:21.715Z,13.10
2023-02-05T11:51:51.906Z,13.20
2023-02-05T11:54:23.225Z,13.30
2023-02-05T11:57:01.993Z,13.30
2023-02-05T11:59:29.916Z,13.40
2023-02-05T12:02:26.180Z,13.40
2023-02-05T12:04:58.853Z,13.50
2023-02-05T12:07:30.420Z,13.60
2023-02-05T12:10:00.125Z,13.60
2023-02-05T12:12:33.396Z,13.60
2023-02-05T12:15:11.113Z,13.70
2023-02-05T12:17:48.808Z,13.90
2023-02-05T12:20:24.814Z,13.90
2023-02-05T12:23:28.387Z,14.00
2023-02-05T12:26:25.132Z,14.10
2023-02-05T12:29:04.431Z,14.20
2023-02-05T12:31:46.226Z,14.30
2023-02-05T12:34:24.924Z,14.40
2023-02-05T12:37:08.960Z,14.40
2023-02-05T12:39:46.451Z,14.50
2023-02-05T12:42:29.819Z,14.60
2023-02-05T12:45:13.123Z,14.70
2023-02-05T12:47:56.344Z,14.70
2023-02-05T12:50:59.983Z,14.80
2023-02-05T12:53:44.406Z,14.80
2023-02-05T12:56:29.586Z,14.80
2023-02-05T12:59:03.641Z,14.90
2023-02-05T13:01:40.633Z,15.00
2023-02-05T13:04:22.760Z,15.00
2023-02-05T13:07:01.012Z,15.10
2023-02-05T13:09:34.400Z,15.20
2023-02-05T13:12:09.013Z,15.20
2023-02-05T13:14:43.006Z,15.10
2023-02-05T13:17:16.370Z,15.10
2023-02-05T13:19:59.090Z,15.10
2023-02-05T13:22:51.244Z,15.10
2023-02-05T13:25:37.979Z,15.10
2023-02-05T13:28:40.780Z,15.10
2023-02-05T13:31:21.018Z,15.00
2023-02-05T13:33:49.655Z,15.00
2023-02-05T13:36:54.972Z,15.20
2023-02-05T13:40:09.198Z,15.20
2023-02-05T13:42:55.044Z,15.10
2023-02-05T13:45:48.490Z,15.20
2023-02-05T13:48:56.752Z,15.20
2023-02-05T13:51:45.273Z,15.20
2023-02-05T13:54:57.939Z,15.30
2023-02-05T13:58:02.028Z,15.30
2023-02-05T14:00:32.538Z,15.50
2023-02-05T14:03:05.875Z,15.50
2023-02-05T14:05:36.851Z,15.40
2023-02-05T14:08:07.750Z,15.50
2023-02-05T14:10:40.530Z,15.60
2023-02-05T14:13:18.308Z,15.60
2023-02-05T14:15:48.009Z,15.40
2023-02-05T14:18:46.961Z,15.20
2023-02-05T14:21:47.778Z,15.10
2023-02-05T14:24:41.818Z,15.10
2023-02-05T14:27:51.613Z,15.00
2023-02-05T14:30:52.608Z,15.00
2023-02-05T14:33:38.914Z,14.90
2023-02-05T14:36:33.442Z,14.80
2023-02-05T14:39:18.072Z,14.70
2023-02-05T14:41:55.297Z,14.60
2023-02-05T14:44:27.948Z,14.50
2023-02-05T14:47:04.674Z,14.40
2023-02-05T14:49:43.985Z,14.40
2023-02-05T14:52:29.936Z,14.30
2023-02-05T14:55:02.680Z,14.20
2023-02-05T14:57:41.636Z,14.00
2023-02-05T15:00:28.138Z,14.00
2023-02-05T15:03:28.156Z,13.90
2023-02-05T15:06:03.470Z,13.80
2023-02-05T15:08:50.032Z,13.60
2023-02-05T15:11:27.815Z,13.60
2023-02-05T15:14:32.842Z,13.60
2023-02-05T15:17:38.187Z,13.40
2023-02-05T15:20:19.243Z,13.30
2023-02-05T15:22:55.255Z,13.20
2023-02-05T15:25:37.100Z,13.10
2023-02-05T15:28:15.428Z,13.00
2023-02-05T15:30:58.085Z,12.80
2023-02-05T15:33:34.663Z,12.80
2023-02-05T15:36:08.787Z,12.70
2023-02-05T15:38:46.433Z,12.70
2023-02-05T15:41:16.513Z,12.70
2023-02-05T15:44:00.317Z,12.60
2023-02-05T15:46:29.752Z,12.40
2023-02-05T15:48:58.927Z,12.30
2023-02-05T15:51:32.094Z,12.20
2023-02-05T15:54:04.769Z,12.20
2023-02-05T15:56:38.919Z,12.20
2023-02-05T15:59:17.427Z,12.00
2023-02-05T16:01:50.949Z,12.00
2023-02-05T16:04:27.287Z,12.10
2023-02-05T16:06:55.423Z,12.00
2023-02-05T16:09:26.684Z,12.00
2023-02-05T16:11:55.966Z,11.90
2023-02-05T16:14:25.400Z,11.80
2023-02-05T16:17:07.555Z,11.70
2023-02-05T16:19:41.767Z,11.70
2023-02-05T16:22:23.914Z,11.60
2023-02-05T16:24:57.292Z,11.60
2023-02-05T16:27:34.045Z,11.50
2023-02-05T16:30:08.243Z,11.50
2023-02-05T16:32:39.757Z,11.50
2023-02-05T16:35:14.832Z,11.40
2023-02-05T16:37:44.374Z,11.40
2023-02-05T16:40:14.913Z,11.30
2023-02-05T16:42:46.510Z,11.10
2023-02-05T16:45:23.643Z,11.10
2023-02-05T16:48:21.806Z,11.00
2023-02-05T16:50:51.013Z,10.90
2023-02-05T16:53:23.316Z,10.90
2023-02-05T16:56:02.242Z,10.90
2023-02-05T16:58:37.644Z,10.80
2023-02-05T17:01:05.979Z,10.70
2023-02-05T17:03:36.763Z,10.70
2023-02-05T17:06:11.820Z,10.70
2023-02-05T17:08:40.687Z,10.60
2023-02-05T17:11:34.369Z,10.50
2023-02-05T17:14:27.606Z,10.40
2023-02-05T17:16:57.081Z,10.20
2023-02-05T17:19:27.875Z,10.00
2023-02-05T17:22:19.601Z,9.90
2023-02-05T17:24:50.679Z,9.90
2023-02-05T17:27:25.264Z,9.80
2023-02-05T17:29:58.623Z,9.70
2023-02-05T17:32:28.177Z,9.80
2023-02-05T17:35:03.314Z,9.70
2023-02-05T17:37:32.427Z,9.70
2023-02-05T17:40:00.225Z,9.60
2023-02-05T17:42:31.529Z,9.50
2023-02-05T17:44:59.713Z,9.40
2023-02-05T17:47:27.769Z,9.40
2023-02-05T17:49:57.081Z,9.40
2023-02-05T17:52:26.180Z,9.20
2023-02-05T17:54:54.417Z,9.10
2023-02-05T17:57:23.712Z,9.00
2023-02-05T17:59:54.742Z,9.10
2023-02-05T18:02:24.768Z,9.40
2023-02-05T18:04:53.457Z,9.70
2023-02-05T18:07:33.328Z,9.90
2023-02-05T18:10:01.435Z,10.10
2023-02-05T18:12:30.053Z,10.10
2023-02-05T18:15:00.303Z,10.10
2023-02-05T18:17:31.002Z,10.10
2023-02-05T18:19:59.799Z,10.20
2023-02-05T18:22:27.567Z,10.20
2023-02-05T18:24:56.710Z,10.20
2023-02-05T18:27:30.881Z,10.20
2023-02-05T18:30:07.659Z,10.30
2023-02-05T18:32:36.786Z,10.30
2023-02-05T18:35:06.200Z,10.30
2023-02-05T18:37:37.202Z,9.80
2023-02-05T18:40:08.737Z,9.30
2023-02-05T18:42:44.992Z,9.40
2023-02-05T18:45:21.988Z,9.30
2023-02-05T18:47:52.993Z,9.50
2023-02-05T18:50:21.004Z,9.60
2023-02-05T18:52:53.920Z,9.70
2023-02-05T18:55:23.661Z,9.70
2023-02-05T18:57:52.594Z,9.40
2023-02-05T19:00:22.286Z,9.40
2023-02-05T19:02:50.722Z,9.50
2023-02-05T19:05:19.038Z,9.50
2023-02-05T19:07:48.022Z,9.50
2023-02-05T19:10:16.581Z,9.40
2023-02-05T19:12:45.171Z,9.40
2023-02-05T19:15:12.969Z,9.40
2023-02-05T19:17:42.337Z,9.40
2023-02-05T19:20:10.745Z,9.40
2023-02-05T19:22:38.357Z,9.40
2023-02-05T19:25:06.833Z,9.30
2023-02-05T19:27:34.880Z,9.30
2023-02-05T19:30:03.048Z,9.30
2023-02-05T19:32:31.821Z,9.20
2023-02-05T19:35:03.575Z,9.10
2023-02-05T19:37:32.026Z,9.00
2023-02-05T19:40:00.038Z,9.00
2023-02-05T19:42:30.529Z,9.10
2023-02-05T19:44:58.378Z,9.10
2023-02-05T19:47:28.422Z,9.10
2023-02-05T19:49:57.376Z,9.00
2023-02-05T19:52:26.871Z,9.00
2023-02-05T19:54:54.941Z,9.00
2023-02-05T19:57:23.114Z,8.80
2023-02-05T19:59:51.178Z,8.40
2023-02-05T20:02:19.749Z,8.40
2023-02-05T20:04:47.787Z,8.40
2023-02-05T20:07:15.841Z,8.50
2023-02-05T20:09:45.543Z,8.40
2023-02-05T20:12:13.456Z,8.30
2023-02-05T20:14:41.324Z,8.30
2023-02-05T20:17:09.485Z,8.30
2023-02-05T20:19:37.773Z,8.30
2023-02-05T20:22:06.667Z,8.40
2023-02-05T20:24:34.746Z,8.40
2023-02-05T20:27:04.254Z,8.40
2023-02-05T20:29:50.931Z,8.40
2023-02-05T20:32:18.901Z,8.40
2023-02-05T20:34:50.517Z,8.40
2023-02-05T20:37:21.485Z,8.30
2023-02-05T20:39:49.430Z,8.40
2023-02-05T20:42:18.666Z,8.40
2023-02-05T20:44:46.737Z,8.40
2023-02-05T20:47:19.024Z,8.40
2023-02-05T20:49:47.937Z,8.40
2023-02-05T20:52:18.269Z,8.40
2023-02-05T20:54:46.968Z,8.30
2023-02-05T20:57:15.077Z,8.20
2023-02-05T20:59:44.856Z,8.40
2023-02-05T21:02:14.167Z,8.40
2023-02-05T21:04:42.463Z,8.40
2023-02-05T21:07:10.438Z,8.40
2023-02-05T21:09:38.375Z,8.20
2023-02-05T21:12:07.466Z,8.10
2023-02-05T21:14:35.978Z,8.10
2023-02-05T21:17:09.563Z,8.10
2023-02-05T21:19:38.837Z,8.00
2023-02-05T21:22:06.704Z,8.10
2023-02-05T21:24:34.704Z,8.00
2023-02-05T21:27:02.758Z,7.90
2023-02-05T21:29:30.387Z,8.00
2023-02-05T21:31:58.296Z,8.00
2023-02-05T21:34:29.549Z,8.10
2023-02-05T21:36:57.678Z,8.00
2023-02-05T21:39:31.302Z,8.00
2023-02-05T21:41:59.886Z,8.00
2023-02-05T21:44:28.389Z,8.00
2023-02-05T21:46:57.248Z,8.00
2023-02-05T21:49:27.038Z,8.00
2023-02-05T21:51:56.481Z,7.90
2023-02-05T21:54:25.921Z,7.90
2023-02-05T21:56:54.760Z,7.90
2023-02-05T21:59:23.412Z,8.00
2023-02-05T22:01:52.327Z,7.80
2023-02-05T22:04:20.728Z,7.80
2023-02-05T22:06:51.172Z,7.80
2023-02-05T22:09:20.333Z,7.90
2023-02-05T22:11:51.027Z,7.90
2023-02-05T22:14:19.621Z,7.80
2023-02-05T22:16:48.744Z,7.80
2023-02-05T22:19:19.496Z,7.80
2023-02-05T22:21:50.139Z,7.80
2023-02-05T22:24:20.218Z,7.60
2023-02-05T22:26:49.321Z,7.60
2023-02-05T22:29:19.429Z,7.60
2023-02-05T22:31:51.617Z,7.60
2023-02-05T22:34:20.197Z,7.50
2023-02-05T22:36:50.243Z,7.50
2023-02-05T22:39:18.739Z,7.40
2023-02-05T22:41:47.250Z,7.40
2023-02-05T22:44:15.724Z,7.40
2023-02-05T22:46:45.052Z,7.40
2023-02-05T22:49:17.426Z,7.40
2023-02-05T22:51:46.109Z,7.40
2023-02-05T22:54:16.654Z,7.40
2023-02-05T22:56:46.165Z,7.40
2023-02-05T22:59:14.532Z,7.40
2023-02-05T23:01:43.051Z,7.30
2023-02-05T23:04:11.552Z,7.40
2023-02-05T23:06:41.700Z,7.30
2023-02-05T23:09:12.746Z,7.30
2023-02-05T23:12:03.607Z,7.20
2023-02-05T23:14:31.906Z,7.30
2023-02-05T23:17:00.302Z,7.20
2023-02-05T23:19:28.667Z,7.20
2023-02-05T23:21:56.954Z,7.30
2023-02-05T23:24:25.098Z,7.30
2023-02-05T23:26:54.837Z,7.30
2023-02-05T23:29:24.798Z,7.30
2023-02-05T23:31:52.965Z,7.30
2023-02-05T23:34:21.216Z,7.30
2023-02-05T23:36:49.422Z,7.30
2023-02-05T23:39:17.627Z,7.20
2023-02-05T23:41:46.252Z,7.20
2023-02-05T23:44:18.250Z,7.20
2023-02-05T23:46:49.671Z,7.20
2023-02-05T23:49:21.328Z,7.20
2023-02-05T23:51:50.356Z,7.20
2023-02-05T23:54:18.929Z,7.20
2023-02-05T23:56:47.932Z,7.20
2023-02-05T23:59:16.835Z,7.20
